»·PEaware :: AAL6302 KLAX-KDFW

AAL6302 :: KLAX-KDFW

FLIGHT INFORMATION

Flight Status: Arrived
Operator:
American Airlines
More flights by this operator :: More flights under this callsign
Pilot: Jason Miller (4381)
Aircraft: BOEING 767-300
(B763)
More flights by this aircraft type
Origin: KLAX Los Angeles Intl
United States
Destination: KDFW Dallas-Ft Worth Intl
United States
More flights between these airports :: More routes between these airports
Route: LAXX6 TRM J169 BLH J169 TFD J50 SSO J4 CONNE J4 INK JEN9
File this flight plan on PilotEdge
Remarks: SEL / ABCD
Altitude:
(Current/Filed)
39,000ft
Speed:
(Current/Filed)
464kts
Departed: 15-Jul-14 08:46 PM
Arrived: 15-Jul-14 11:33 PM
Distance/Time
Traveled:
1070nm/2:46
Distance/Time
To Go:
Arrived

Flight Plot

Page will automatically refresh every two minutes.


Map Options




Map Legend


Flown Route
Filed Route
Departure Airport
Arrival Airport
Navaid (VOR, NDB)
Fix

Horizontal Profiles

Position Reports

Time Latitude Longitude Heading Altitude Ground
Speed
15-Jul-14 20:01 33.944682 -118.409346 224 139ft 0kts
15-Jul-14 20:02 33.944682 -118.409346 224 139ft 0kts
15-Jul-14 20:03 33.944682 -118.409346 224 139ft 0kts
15-Jul-14 20:04 33.944682 -118.409346 224 139ft 0kts
15-Jul-14 20:05 33.944682 -118.409346 224 139ft 0kts
15-Jul-14 20:06 33.944682 -118.409346 224 139ft 0kts
15-Jul-14 20:07 33.944682 -118.409346 224 140ft 0kts
15-Jul-14 20:08 33.944682 -118.409346 224 140ft 0kts
15-Jul-14 20:09 33.944682 -118.409346 224 140ft 0kts
15-Jul-14 20:10 33.944682 -118.409346 224 140ft 0kts
15-Jul-14 20:11 33.944682 -118.409346 224 140ft 0kts
15-Jul-14 20:12 33.944682 -118.409346 224 140ft 0kts
15-Jul-14 20:13 33.944682 -118.409346 224 140ft 0kts
15-Jul-14 20:14 33.944682 -118.409346 224 140ft 0kts
15-Jul-14 20:15 33.944682 -118.409346 224 140ft 0kts
15-Jul-14 20:16 33.944682 -118.409346 224 140ft 0kts
15-Jul-14 20:17 33.944682 -118.409346 224 140ft 0kts
15-Jul-14 20:18 33.944682 -118.409346 224 140ft 0kts
15-Jul-14 20:19 33.944682 -118.409346 224 140ft 0kts
15-Jul-14 20:20 33.944682 -118.409346 224 140ft 0kts
15-Jul-14 20:21 33.944682 -118.409346 224 140ft 0kts
15-Jul-14 20:22 33.944682 -118.409346 224 140ft 0kts
15-Jul-14 20:23 33.944682 -118.409346 224 140ft 0kts
15-Jul-14 20:24 33.944682 -118.409346 224 140ft 0kts
15-Jul-14 20:25 33.944682 -118.409346 224 140ft 0kts
15-Jul-14 20:26 33.944682 -118.409346 224 140ft 0kts
15-Jul-14 20:27 33.944682 -118.409346 224 140ft 0kts
15-Jul-14 20:28 33.944682 -118.409346 224 140ft 0kts
15-Jul-14 20:29 33.944682 -118.409346 224 140ft 0kts
15-Jul-14 20:30 33.944682 -118.409346 224 140ft 0kts
15-Jul-14 20:31 33.944682 -118.409346 224 140ft 0kts
15-Jul-14 20:32 33.944682 -118.409346 224 140ft 0kts
15-Jul-14 20:33 33.944682 -118.409347 224 140ft 0kts
15-Jul-14 20:34 33.944682 -118.409347 224 140ft 0kts
15-Jul-14 20:35 33.944734 -118.409284 224 140ft 2kts
15-Jul-14 20:36 33.945182 -118.409094 134 140ft 0kts
15-Jul-14 20:37 33.945433 -118.408743 341 140ft 3kts
15-Jul-14 20:38 33.946319 -118.408913 352 140ft 0kts
15-Jul-14 20:39 33.946331 -118.408915 352 140ft 0kts
15-Jul-14 20:40 33.946374 -118.408921 352 140ft 1kts
15-Jul-14 20:41 33.947817 -118.406095 82 140ft 20kts
15-Jul-14 20:42 33.948707 -118.400751 328 140ft 4kts
15-Jul-14 20:43 33.949358 -118.401560 337 140ft 0kts
15-Jul-14 20:44 33.950103 -118.402092 278 140ft 11kts
15-Jul-14 20:45 33.946579 -118.438497 263 590ft 207kts
15-Jul-14 20:46 33.940811 -118.515150 265 2682ft 244kts
15-Jul-14 20:47 33.935057 -118.596927 265 2900ft 252kts
15-Jul-14 20:48 33.929047 -118.683504 265 2904ft 261kts
15-Jul-14 20:49 33.879264 -118.725701 159 4869ft 265kts
15-Jul-14 20:50 33.810744 -118.687229 146 7901ft 278kts
15-Jul-14 20:51 33.786629 -118.600985 94 10883ft 291kts
15-Jul-14 20:52 33.779830 -118.500873 94 12940ft 306kts
15-Jul-14 20:53 33.772903 -118.400064 94 13004ft 303kts
15-Jul-14 20:54 33.765924 -118.298925 92 13019ft 304kts
15-Jul-14 20:55 33.774064 -118.181583 83 14343ft 395kts
15-Jul-14 20:56 33.783097 -118.059323 86 17629ft 414kts
15-Jul-14 20:57 33.773947 -117.925148 96 20769ft 434kts
15-Jul-14 20:58 33.762379 -117.776950 94 23800ft 455kts
15-Jul-14 20:59 33.750454 -117.625818 95 26462ft 473kts
15-Jul-14 21:00 33.737529 -117.468360 94 29654ft 467kts
15-Jul-14 21:01 33.728397 -117.340055 94 31906ft 463kts
15-Jul-14 21:02 33.716588 -117.185866 95 34128ft 459kts
15-Jul-14 21:03 33.703365 -117.035754 95 35950ft 455kts
15-Jul-14 21:04 33.690506 -116.884766 94 37377ft 455kts
15-Jul-14 21:05 33.678598 -116.733078 95 38565ft 456kts
15-Jul-14 21:06 33.665659 -116.579252 95 39000ft 463kts
15-Jul-14 21:07 33.652383 -116.427500 96 39004ft 455kts
15-Jul-14 21:08 33.638013 -116.276252 95 39001ft 455kts
15-Jul-14 21:09 33.625988 -116.124612 92 38998ft 456kts
15-Jul-14 21:10 33.624231 -115.972282 90 38995ft 456kts
15-Jul-14 21:11 33.621993 -115.819911 91 38999ft 456kts
15-Jul-14 21:12 33.618899 -115.667417 91 39003ft 456kts
15-Jul-14 21:13 33.615953 -115.514989 91 39005ft 456kts
15-Jul-14 21:14 33.611678 -115.362638 91 39004ft 456kts
15-Jul-14 21:15 33.607064 -115.210063 91 39001ft 456kts
15-Jul-14 21:16 33.604260 -115.057621 91 38998ft 456kts
15-Jul-14 21:17 33.600870 -114.905159 92 38996ft 456kts
15-Jul-14 21:18 33.595411 -114.752876 92 38999ft 456kts
15-Jul-14 21:19 33.582532 -114.601187 96 39002ft 456kts
15-Jul-14 21:20 33.567920 -114.449788 96 39005ft 456kts
15-Jul-14 21:21 33.553740 -114.298417 95 39004ft 456kts
15-Jul-14 21:22 33.541001 -114.146767 95 39000ft 456kts
15-Jul-14 21:23 33.526174 -113.994797 97 38995ft 456kts
15-Jul-14 21:24 33.511854 -113.843401 95 39000ft 456kts
15-Jul-14 21:25 33.497809 -113.691905 96 39005ft 456kts
15-Jul-14 21:26 33.482500 -113.540685 96 39005ft 456kts
15-Jul-14 21:27 33.467250 -113.391589 96 39005ft 457kts
15-Jul-14 21:28 33.427440 -113.247806 117 39003ft 457kts
15-Jul-14 21:29 33.369426 -113.111501 115 38999ft 457kts
15-Jul-14 21:30 33.315484 -112.975372 114 38995ft 457kts
15-Jul-14 21:31 33.261538 -112.837745 115 38998ft 457kts
15-Jul-14 21:32 33.206021 -112.701033 115 38999ft 456kts
15-Jul-14 21:33 33.151281 -112.563914 114 39000ft 456kts
15-Jul-14 21:34 33.096793 -112.426882 115 39002ft 456kts
15-Jul-14 21:35 33.041248 -112.290472 115 39002ft 456kts
15-Jul-14 21:36 32.985149 -112.154178 116 39000ft 456kts
15-Jul-14 21:37 32.930404 -112.017499 115 38997ft 456kts
15-Jul-14 21:38 32.877258 -111.880196 108 38999ft 456kts
15-Jul-14 21:39 32.846694 -111.733279 102 39002ft 457kts
15-Jul-14 21:40 32.814690 -111.589076 105 39004ft 458kts
15-Jul-14 21:41 32.780416 -111.440334 104 39005ft 458kts
15-Jul-14 21:42 32.747694 -111.293973 105 39004ft 457kts
15-Jul-14 21:43 32.714309 -111.147766 104 39000ft 457kts
15-Jul-14 21:44 32.682102 -111.001425 104 38995ft 457kts
15-Jul-14 21:45 32.654186 -110.879700 105 39000ft 457kts
15-Jul-14 21:46 32.613687 -110.710762 105 39005ft 457kts
15-Jul-14 21:47 32.586480 -110.588534 104 39005ft 457kts
15-Jul-14 21:48 32.547213 -110.418759 105 39005ft 457kts
15-Jul-14 21:49 32.518614 -110.297549 105 39005ft 457kts
15-Jul-14 21:50 32.484570 -110.152087 105 39005ft 457kts
15-Jul-14 21:51 32.448815 -110.007292 106 39004ft 457kts
15-Jul-14 21:52 32.413867 -109.862364 105 39002ft 457kts
15-Jul-14 21:53 32.380298 -109.716850 105 38999ft 457kts
15-Jul-14 21:54 32.344518 -109.572112 106 38996ft 457kts
15-Jul-14 21:55 32.308482 -109.426874 106 38997ft 457kts
15-Jul-14 21:56 32.273922 -109.282045 105 39001ft 457kts
15-Jul-14 21:57 32.255188 -109.133510 94 39004ft 457kts
15-Jul-14 21:58 32.242896 -108.983839 96 39004ft 457kts
15-Jul-14 21:59 32.228360 -108.834451 96 39002ft 457kts
15-Jul-14 22:00 32.213294 -108.685188 97 39000ft 457kts
15-Jul-14 22:01 32.198035 -108.535786 95 39000ft 457kts
15-Jul-14 22:02 32.184066 -108.386381 96 38999ft 457kts
15-Jul-14 22:03 32.169025 -108.236618 97 38997ft 457kts
15-Jul-14 22:04 32.153529 -108.087364 96 38996ft 457kts
15-Jul-14 22:05 32.138115 -107.938082 97 38999ft 457kts
15-Jul-14 22:06 32.122263 -107.788911 96 39004ft 457kts
15-Jul-14 22:07 32.106279 -107.639846 97 39004ft 457kts
15-Jul-14 22:08 32.088955 -107.490333 97 39001ft 457kts
15-Jul-14 22:09 32.073501 -107.341034 96 38997ft 458kts
15-Jul-14 22:10 32.057885 -107.191731 97 38997ft 458kts
15-Jul-14 22:11 32.040457 -107.042822 97 39001ft 458kts
15-Jul-14 22:12 32.022749 -106.894062 97 39004ft 458kts
15-Jul-14 22:13 32.006710 -106.744854 97 39005ft 458kts
15-Jul-14 22:14 31.989828 -106.595868 97 39003ft 458kts
15-Jul-14 22:15 31.972846 -106.446328 97 39002ft 458kts
15-Jul-14 22:16 31.954676 -106.297474 98 39001ft 458kts
15-Jul-14 22:17 31.947788 -106.147773 89 39001ft 458kts
15-Jul-14 22:18 31.947772 -105.998122 90 38999ft 458kts
15-Jul-14 22:19 31.945066 -105.847335 91 38996ft 458kts
15-Jul-14 22:20 31.942043 -105.697721 91 38997ft 458kts
15-Jul-14 22:21 31.939578 -105.547504 91 38999ft 458kts
15-Jul-14 22:22 31.935294 -105.396822 91 39001ft 458kts
15-Jul-14 22:23 31.932821 -105.246677 90 39001ft 458kts
15-Jul-14 22:24 31.930111 -105.096395 91 39001ft 458kts
15-Jul-14 22:25 31.926318 -104.946188 91 39001ft 458kts
15-Jul-14 22:26 31.922849 -104.795937 92 39000ft 458kts
15-Jul-14 22:27 31.918464 -104.645809 91 38998ft 458kts
15-Jul-14 22:28 31.915043 -104.495410 91 38997ft 458kts
15-Jul-14 22:29 31.910867 -104.345140 92 38996ft 458kts
15-Jul-14 22:30 31.906541 -104.219927 92 39003ft 458kts
15-Jul-14 22:31 31.901144 -104.044615 92 39003ft 459kts
15-Jul-14 22:32 31.896900 -103.919271 91 39002ft 459kts
15-Jul-14 22:33 31.893323 -103.768947 91 38999ft 459kts
15-Jul-14 22:34 31.888406 -103.618085 92 38996ft 459kts
15-Jul-14 22:35 31.882757 -103.468491 92 38997ft 458kts
15-Jul-14 22:36 31.876736 -103.317816 92 39001ft 458kts
15-Jul-14 22:37 31.880567 -103.168062 81 39005ft 458kts
15-Jul-14 22:38 31.900499 -103.019626 81 39005ft 458kts
15-Jul-14 22:39 31.918802 -102.872962 81 39004ft 458kts
15-Jul-14 22:40 31.936212 -102.721507 82 39002ft 458kts
15-Jul-14 22:41 31.952157 -102.577058 82 39003ft 440kts
15-Jul-14 22:42 31.968912 -102.430318 81 39004ft 459kts
15-Jul-14 22:43 31.986680 -102.281136 81 39003ft 459kts
15-Jul-14 22:44 32.002538 -102.131686 82 39001ft 459kts
15-Jul-14 22:45 32.019305 -101.982383 82 38997ft 458kts
15-Jul-14 22:46 32.035463 -101.832652 82 38996ft 458kts
15-Jul-14 22:47 32.050141 -101.683238 82 39001ft 458kts
15-Jul-14 22:48 32.066222 -101.534146 82 39005ft 458kts
15-Jul-14 22:49 32.082977 -101.384729 82 39005ft 459kts
15-Jul-14 22:50 32.098316 -101.235024 83 38999ft 459kts
15-Jul-14 22:51 32.113811 -101.084636 82 38995ft 459kts
15-Jul-14 22:52 32.128795 -100.934818 83 38998ft 459kts
15-Jul-14 22:53 32.142843 -100.784939 83 39000ft 459kts
15-Jul-14 22:54 32.157413 -100.635082 82 39000ft 459kts
15-Jul-14 22:55 32.172488 -100.485307 82 38999ft 459kts
15-Jul-14 22:56 32.187493 -100.335507 83 38999ft 459kts
15-Jul-14 22:57 32.200787 -100.185508 84 38997ft 459kts
15-Jul-14 22:58 32.215533 -100.035476 82 38995ft 459kts
15-Jul-14 22:59 32.229620 -99.885460 84 39000ft 459kts
15-Jul-14 23:00 32.235568 -99.734433 92 39004ft 458kts
15-Jul-14 23:01 32.228003 -99.583800 92 39002ft 459kts
15-Jul-14 23:02 32.222725 -99.435502 92 38999ft 459kts
15-Jul-14 23:03 32.218045 -99.284553 91 38995ft 459kts
15-Jul-14 23:04 32.212840 -99.133044 93 37867ft 465kts
15-Jul-14 23:05 32.206150 -98.979401 92 34509ft 469kts
15-Jul-14 23:06 32.200992 -98.824773 92 31071ft 470kts
15-Jul-14 23:07 32.194492 -98.672269 93 28292ft 455kts
15-Jul-14 23:08 32.187901 -98.525730 92 25773ft 438kts
15-Jul-14 23:09 32.182474 -98.384498 92 23325ft 422kts
15-Jul-14 23:10 32.177272 -98.248428 92 20965ft 406kts
15-Jul-14 23:11 32.170410 -98.117326 92 18687ft 393kts
15-Jul-14 23:12 32.165443 -97.990136 92 16424ft 382kts
15-Jul-14 23:13 32.168491 -97.870644 67 14197ft 371kts
15-Jul-14 23:14 32.226183 -97.793728 42 12427ft 360kts
15-Jul-14 23:15 32.295721 -97.716079 44 11435ft 321kts
15-Jul-14 23:16 32.354345 -97.645231 46 10709ft 291kts
15-Jul-14 23:17 32.409902 -97.577320 45 9701ft 273kts
15-Jul-14 23:18 32.459684 -97.519501 44 9217ft 238kts
15-Jul-14 23:19 32.506901 -97.463297 45 8310ft 239kts
15-Jul-14 23:20 32.553018 -97.407782 46 7317ft 234kts
15-Jul-14 23:21 32.570088 -97.336935 84 6336ft 231kts
15-Jul-14 23:22 32.575438 -97.261795 85 5335ft 224kts
15-Jul-14 23:23 32.580878 -97.188177 84 4997ft 225kts
15-Jul-14 23:24 32.587614 -97.113797 82 4995ft 228kts
15-Jul-14 23:25 32.617206 -97.056051 14 5001ft 209kts
15-Jul-14 23:26 32.659044 -97.056055 357 4871ft 185kts
15-Jul-14 23:27 32.710283 -97.055932 1 3881ft 180kts
15-Jul-14 23:28 32.757506 -97.055341 0 2977ft 170kts
15-Jul-14 23:29 32.801014 -97.055161 0 2146ft 150kts
15-Jul-14 23:30 32.842667 -97.054951 0 1351ft 148kts
15-Jul-14 23:31 32.883507 -97.054723 0 624ft 132kts
15-Jul-14 23:32 32.900107 -97.053363 29 617ft 28kts
15-Jul-14 23:33 32.901162 -97.048235 88 617ft 13kts
15-Jul-14 23:34 32.901463 -97.044245 37 617ft 6kts

Navigation Log

Ident Type
1. KLAX Airport
2. SLI Navaid
3. TUSTI Fix
4. HEMET Fix
5. TRM Navaid
6. BLH Navaid
7. SALOM Fix
8. KOFFA Fix
9. TFD Navaid
10. TOTEC Fix
11. ITEMM Fix
12. SSO Navaid
13. EWM Navaid
14. CONNE Fix
15. INK Navaid
16. PHILS Fix
17. TQA Navaid
18. SITNA Fix
19. GEENI Fix
20. CADES Fix
21. SICUM Fix
22. JEN Navaid
23. FEVER Fix
24. HIRST Fix
25. CURLE Fix
26. KDFW Airport